sensor_id;sensor_type;location;lat;lon;timestamp;temperature;humidity
15156;DHT22;7678;50.058;8.306;2023-06-22T00:00:59;23.70;99.90
15156;DHT22;7678;50.058;8.306;2023-06-22T00:03:28;23.80;99.90
15156;DHT22;7678;50.058;8.306;2023-06-22T00:05:57;23.60;99.90
15156;DHT22;7678;50.058;8.306;2023-06-22T00:08:25;23.40;99.90
15156;DHT22;7678;50.058;8.306;2023-06-22T00:10:53;23.30;99.90
15156;DHT22;7678;50.058;8.306;2023-06-22T00:13:21;23.40;99.90
15156;DHT22;7678;50.058;8.306;2023-06-22T00:15:49;23.50;99.90
15156;DHT22;7678;50.058;8.306;2023-06-22T00:18:17;23.70;99.90
15156;DHT22;7678;50.058;8.306;2023-06-22T00:20:46;23.60;99.90
15156;DHT22;7678;50.058;8.306;2023-06-22T00:23:14;24.20;99.90
15156;DHT22;7678;50.058;8.306;2023-06-22T00:25:44;24.00;99.90
15156;DHT22;7678;50.058;8.306;2023-06-22T00:28:12;23.90;99.90
15156;DHT22;7678;50.058;8.306;2023-06-22T00:30:40;24.10;99.90
15156;DHT22;7678;50.058;8.306;2023-06-22T00:33:08;23.90;99.90
15156;DHT22;7678;50.058;8.306;2023-06-22T00:35:36;23.80;99.90
15156;DHT22;7678;50.058;8.306;2023-06-22T00:38:05;23.60;99.90
15156;DHT22;7678;50.058;8.306;2023-06-22T00:40:35;23.50;99.90
15156;DHT22;7678;50.058;8.306;2023-06-22T00:43:04;23.80;99.90
15156;DHT22;7678;50.058;8.306;2023-06-22T00:45:33;23.80;99.90
15156;DHT22;7678;50.058;8.306;2023-06-22T00:48:01;23.70;99.90
15156;DHT22;7678;50.058;8.306;2023-06-22T00:50:32;23.80;99.90
15156;DHT22;7678;50.058;8.306;2023-06-22T00:53:05;23.60;99.90
15156;DHT22;7678;50.058;8.306;2023-06-22T00:55:38;23.40;99.90
15156;DHT22;7678;50.058;8.306;2023-06-22T00:58:06;23.40;99.90
15156;DHT22;7678;50.058;8.306;2023-06-22T01:00:38;23.40;99.90
15156;DHT22;7678;50.058;8.306;2023-06-22T01:03:07;23.50;99.90
15156;DHT22;7678;50.058;8.306;2023-06-22T01:05:37;23.30;99.90
15156;DHT22;7678;50.058;8.306;2023-06-22T01:08:18;23.50;99.90
15156;DHT22;7678;50.058;8.306;2023-06-22T01:10:52;23.20;99.90
15156;DHT22;7678;50.058;8.306;2023-06-22T01:13:27;23.20;99.90
15156;DHT22;7678;50.058;8.306;2023-06-22T01:16:01;22.70;99.90
15156;DHT22;7678;50.058;8.306;2023-06-22T01:18:31;22.40;99.90
15156;DHT22;7678;50.058;8.306;2023-06-22T01:21:01;22.40;99.90
15156;DHT22;7678;50.058;8.306;2023-06-22T01:23:48;22.30;99.90
15156;DHT22;7678;50.058;8.306;2023-06-22T01:26:20;22.10;99.90
15156;DHT22;7678;50.058;8.306;2023-06-22T01:28:53;22.30;99.90
15156;DHT22;7678;50.058;8.306;2023-06-22T01:31:24;22.20;99.90
15156;DHT22;7678;50.058;8.306;2023-06-22T01:33:54;22.20;99.90
15156;DHT22;7678;50.058;8.306;2023-06-22T01:36:24;21.70;99.90
15156;DHT22;7678;50.058;8.306;2023-06-22T01:38:53;21.50;99.90
15156;DHT22;7678;50.058;8.306;2023-06-22T01:41:24;21.40;99.90
15156;DHT22;7678;50.058;8.306;2023-06-22T01:43:54;21.30;99.90
15156;DHT22;7678;50.058;8.306;2023-06-22T01:46:23;21.30;99.90
15156;DHT22;7678;50.058;8.306;2023-06-22T01:48:52;21.10;99.90
15156;DHT22;7678;50.058;8.306;2023-06-22T01:51:20;21.00;99.90
15156;DHT22;7678;50.058;8.306;2023-06-22T01:53:48;21.00;99.90
15156;DHT22;7678;50.058;8.306;2023-06-22T01:56:17;21.10;99.90
15156;DHT22;7678;50.058;8.306;2023-06-22T01:58:49;21.00;99.90
15156;DHT22;7678;50.058;8.306;2023-06-22T02:01:23;21.00;99.90
15156;DHT22;7678;50.058;8.306;2023-06-22T02:03:57;21.00;99.90
15156;DHT22;7678;50.058;8.306;2023-06-22T02:06:32;20.90;99.90
15156;DHT22;7678;50.058;8.306;2023-06-22T02:09:04;21.20;99.90
15156;DHT22;7678;50.058;8.306;2023-06-22T02:11:34;21.60;99.90
15156;DHT22;7678;50.058;8.306;2023-06-22T02:14:03;21.70;99.90
15156;DHT22;7678;50.058;8.306;2023-06-22T02:16:33;21.90;99.90
15156;DHT22;7678;50.058;8.306;2023-06-22T02:19:02;21.90;99.90
15156;DHT22;7678;50.058;8.306;2023-06-22T02:21:31;21.90;99.90
15156;DHT22;7678;50.058;8.306;2023-06-22T02:23:59;21.60;99.90
15156;DHT22;7678;50.058;8.306;2023-06-22T02:26:28;21.50;99.90
15156;DHT22;7678;50.058;8.306;2023-06-22T02:28:56;21.10;99.90
15156;DHT22;7678;50.058;8.306;2023-06-22T02:31:24;21.20;99.90
15156;DHT22;7678;50.058;8.306;2023-06-22T02:33:59;21.00;99.90
15156;DHT22;7678;50.058;8.306;2023-06-22T02:36:27;20.70;99.90
15156;DHT22;7678;50.058;8.306;2023-06-22T02:38:59;20.60;99.90
15156;DHT22;7678;50.058;8.306;2023-06-22T02:41:28;20.70;99.90
15156;DHT22;7678;50.058;8.306;2023-06-22T02:43:56;20.90;99.90
15156;DHT22;7678;50.058;8.306;2023-06-22T02:46:24;21.10;99.90
15156;DHT22;7678;50.058;8.306;2023-06-22T02:48:52;21.10;99.90
15156;DHT22;7678;50.058;8.306;2023-06-22T02:51:22;21.00;99.90
15156;DHT22;7678;50.058;8.306;2023-06-22T02:53:50;21.30;99.90
15156;DHT22;7678;50.058;8.306;2023-06-22T02:56:18;21.30;99.90
15156;DHT22;7678;50.058;8.306;2023-06-22T02:58:51;21.50;99.90
15156;DHT22;7678;50.058;8.306;2023-06-22T03:01:19;21.40;99.90
15156;DHT22;7678;50.058;8.306;2023-06-22T03:03:51;21.20;99.90
15156;DHT22;7678;50.058;8.306;2023-06-22T03:06:19;21.20;99.90
15156;DHT22;7678;50.058;8.306;2023-06-22T03:08:52;21.20;99.90
15156;DHT22;7678;50.058;8.306;2023-06-22T03:11:20;21.00;99.90
15156;DHT22;7678;50.058;8.306;2023-06-22T03:13:48;20.90;99.90
15156;DHT22;7678;50.058;8.306;2023-06-22T03:16:16;20.80;99.90
15156;DHT22;7678;50.058;8.306;2023-06-22T03:18:44;20.90;99.90
15156;DHT22;7678;50.058;8.306;2023-06-22T03:21:12;21.30;99.90
15156;DHT22;7678;50.058;8.306;2023-06-22T03:23:42;21.40;99.90
15156;DHT22;7678;50.058;8.306;2023-06-22T03:26:11;21.20;99.90
15156;DHT22;7678;50.058;8.306;2023-06-22T03:28:39;21.10;99.90
15156;DHT22;7678;50.058;8.306;2023-06-22T03:31:08;21.10;99.90
15156;DHT22;7678;50.058;8.306;2023-06-22T03:33:36;21.20;99.90
15156;DHT22;7678;50.058;8.306;2023-06-22T03:36:04;21.10;99.90
15156;DHT22;7678;50.058;8.306;2023-06-22T03:38:32;21.30;99.90
15156;DHT22;7678;50.058;8.306;2023-06-22T03:41:00;21.40;99.90
15156;DHT22;7678;50.058;8.306;2023-06-22T03:43:30;21.30;99.90
15156;DHT22;7678;50.058;8.306;2023-06-22T03:45:58;21.40;99.90
15156;DHT22;7678;50.058;8.306;2023-06-22T03:48:26;21.50;99.90
15156;DHT22;7678;50.058;8.306;2023-06-22T03:50:54;21.50;99.90
15156;DHT22;7678;50.058;8.306;2023-06-22T03:53:22;21.60;99.90
15156;DHT22;7678;50.058;8.306;2023-06-22T03:55:51;21.80;99.90
15156;DHT22;7678;50.058;8.306;2023-06-22T03:58:20;21.80;99.90
15156;DHT22;7678;50.058;8.306;2023-06-22T04:00:51;21.60;99.90
15156;DHT22;7678;50.058;8.306;2023-06-22T04:03:20;21.40;99.90
15156;DHT22;7678;50.058;8.306;2023-06-22T04:05:48;21.50;99.90
15156;DHT22;7678;50.058;8.306;2023-06-22T04:08:16;21.60;99.90
15156;DHT22;7678;50.058;8.306;2023-06-22T04:10:44;21.70;99.90
15156;DHT22;7678;50.058;8.306;2023-06-22T04:13:12;21.60;99.90
15156;DHT22;7678;50.058;8.306;2023-06-22T04:15:40;21.70;99.90
15156;DHT22;7678;50.058;8.306;2023-06-22T04:18:09;21.80;99.90
15156;DHT22;7678;50.058;8.306;2023-06-22T04:20:38;21.80;99.90
15156;DHT22;7678;50.058;8.306;2023-06-22T04:23:06;21.70;99.90
15156;DHT22;7678;50.058;8.306;2023-06-22T04:25:34;21.60;99.90
15156;DHT22;7678;50.058;8.306;2023-06-22T04:28:03;21.70;99.90
15156;DHT22;7678;50.058;8.306;2023-06-22T04:30:32;21.70;99.90
15156;DHT22;7678;50.058;8.306;2023-06-22T04:33:00;21.70;99.90
15156;DHT22;7678;50.058;8.306;2023-06-22T04:35:30;21.70;99.90
15156;DHT22;7678;50.058;8.306;2023-06-22T04:37:58;21.60;99.90
15156;DHT22;7678;50.058;8.306;2023-06-22T04:40:27;21.50;99.90
15156;DHT22;7678;50.058;8.306;2023-06-22T04:42:55;21.60;99.90
15156;DHT22;7678;50.058;8.306;2023-06-22T04:45:23;21.60;99.90
15156;DHT22;7678;50.058;8.306;2023-06-22T04:47:51;21.70;99.90
15156;DHT22;7678;50.058;8.306;2023-06-22T04:50:20;21.80;99.90
15156;DHT22;7678;50.058;8.306;2023-06-22T04:52:51;21.80;99.90
15156;DHT22;7678;50.058;8.306;2023-06-22T04:55:20;21.90;99.90
15156;DHT22;7678;50.058;8.306;2023-06-22T04:57:48;22.00;99.90
15156;DHT22;7678;50.058;8.306;2023-06-22T05:00:17;22.00;99.90
15156;DHT22;7678;50.058;8.306;2023-06-22T05:02:46;22.00;99.90
15156;DHT22;7678;50.058;8.306;2023-06-22T05:05:15;22.00;99.90
15156;DHT22;7678;50.058;8.306;2023-06-22T05:07:44;21.90;99.90
15156;DHT22;7678;50.058;8.306;2023-06-22T05:10:16;22.00;99.90
15156;DHT22;7678;50.058;8.306;2023-06-22T05:12:44;22.10;99.90
15156;DHT22;7678;50.058;8.306;2023-06-22T05:15:12;22.10;99.90
15156;DHT22;7678;50.058;8.306;2023-06-22T05:17:42;22.30;99.90
15156;DHT22;7678;50.058;8.306;2023-06-22T05:20:11;22.30;99.90
15156;DHT22;7678;50.058;8.306;2023-06-22T05:22:40;22.20;99.90
15156;DHT22;7678;50.058;8.306;2023-06-22T05:25:10;22.10;99.90
15156;DHT22;7678;50.058;8.306;2023-06-22T05:27:40;22.10;99.90
15156;DHT22;7678;50.058;8.306;2023-06-22T05:30:09;22.10;99.90
15156;DHT22;7678;50.058;8.306;2023-06-22T05:32:38;22.00;99.90
15156;DHT22;7678;50.058;8.306;2023-06-22T05:35:06;22.20;99.90
15156;DHT22;7678;50.058;8.306;2023-06-22T05:37:35;22.40;99.90
15156;DHT22;7678;50.058;8.306;2023-06-22T05:40:04;22.50;99.90
15156;DHT22;7678;50.058;8.306;2023-06-22T05:42:34;22.70;99.90
15156;DHT22;7678;50.058;8.306;2023-06-22T05:45:05;22.80;99.90
15156;DHT22;7678;50.058;8.306;2023-06-22T05:47:33;22.70;99.90
15156;DHT22;7678;50.058;8.306;2023-06-22T05:50:01;22.90;99.90
15156;DHT22;7678;50.058;8.306;2023-06-22T05:52:33;23.00;99.90
15156;DHT22;7678;50.058;8.306;2023-06-22T05:55:02;23.20;99.90
15156;DHT22;7678;50.058;8.306;2023-06-22T05:57:30;23.20;99.90
15156;DHT22;7678;50.058;8.306;2023-06-22T05:59:58;23.20;99.90
15156;DHT22;7678;50.058;8.306;2023-06-22T06:02:27;23.40;99.90
15156;DHT22;7678;50.058;8.306;2023-06-22T06:04:55;23.40;99.90
15156;DHT22;7678;50.058;8.306;2023-06-22T06:07:23;23.40;99.90
15156;DHT22;7678;50.058;8.306;2023-06-22T06:09:52;23.50;99.90
15156;DHT22;7678;50.058;8.306;2023-06-22T06:12:21;23.70;99.90
15156;DHT22;7678;50.058;8.306;2023-06-22T06:14:49;23.80;99.90
15156;DHT22;7678;50.058;8.306;2023-06-22T06:17:18;23.90;99.90
15156;DHT22;7678;50.058;8.306;2023-06-22T06:19:47;23.90;99.90
15156;DHT22;7678;50.058;8.306;2023-06-22T06:22:15;24.00;99.90
15156;DHT22;7678;50.058;8.306;2023-06-22T06:24:43;24.00;99.90
15156;DHT22;7678;50.058;8.306;2023-06-22T06:27:11;23.90;99.90
15156;DHT22;7678;50.058;8.306;2023-06-22T06:29:39;24.00;99.90
15156;DHT22;7678;50.058;8.306;2023-06-22T06:32:08;24.00;99.90
15156;DHT22;7678;50.058;8.306;2023-06-22T06:34:36;24.10;99.90
15156;DHT22;7678;50.058;8.306;2023-06-22T06:37:08;24.10;99.90
15156;DHT22;7678;50.058;8.306;2023-06-22T06:39:36;24.10;99.90
15156;DHT22;7678;50.058;8.306;2023-06-22T06:42:08;24.20;99.90
15156;DHT22;7678;50.058;8.306;2023-06-22T06:44:37;24.20;99.90
15156;DHT22;7678;50.058;8.306;2023-06-22T06:47:05;24.20;99.90
15156;DHT22;7678;50.058;8.306;2023-06-22T06:49:34;24.30;99.90
15156;DHT22;7678;50.058;8.306;2023-06-22T06:52:05;24.30;99.90
15156;DHT22;7678;50.058;8.306;2023-06-22T06:54:33;24.30;99.90
15156;DHT22;7678;50.058;8.306;2023-06-22T06:57:01;24.30;99.90
15156;DHT22;7678;50.058;8.306;2023-06-22T06:59:30;24.30;99.90
15156;DHT22;7678;50.058;8.306;2023-06-22T07:01:58;24.40;99.90
15156;DHT22;7678;50.058;8.306;2023-06-22T07:04:26;24.50;99.90
15156;DHT22;7678;50.058;8.306;2023-06-22T07:06:54;24.60;99.90
15156;DHT22;7678;50.058;8.306;2023-06-22T07:09:24;24.50;99.90
15156;DHT22;7678;50.058;8.306;2023-06-22T07:11:52;24.50;99.90
15156;DHT22;7678;50.058;8.306;2023-06-22T07:14:20;24.60;99.90
15156;DHT22;7678;50.058;8.306;2023-06-22T07:16:48;24.70;99.90
15156;DHT22;7678;50.058;8.306;2023-06-22T07:19:24;24.90;99.90
15156;DHT22;7678;50.058;8.306;2023-06-22T07:21:52;25.00;99.90
15156;DHT22;7678;50.058;8.306;2023-06-22T07:24:21;25.00;99.90
15156;DHT22;7678;50.058;8.306;2023-06-22T07:26:51;25.00;99.90
15156;DHT22;7678;50.058;8.306;2023-06-22T07:29:20;25.00;99.90
15156;DHT22;7678;50.058;8.306;2023-06-22T07:31:50;25.10;99.90
15156;DHT22;7678;50.058;8.306;2023-06-22T07:34:18;25.30;99.90
15156;DHT22;7678;50.058;8.306;2023-06-22T07:36:46;25.30;99.90
15156;DHT22;7678;50.058;8.306;2023-06-22T07:39:15;25.30;99.90
15156;DHT22;7678;50.058;8.306;2023-06-22T07:41:43;25.30;99.90
15156;DHT22;7678;50.058;8.306;2023-06-22T07:44:14;25.40;99.90
15156;DHT22;7678;50.058;8.306;2023-06-22T07:46:43;25.40;99.90
15156;DHT22;7678;50.058;8.306;2023-06-22T07:49:11;25.60;99.90
15156;DHT22;7678;50.058;8.306;2023-06-22T07:51:39;25.60;99.90
15156;DHT22;7678;50.058;8.306;2023-06-22T07:54:09;25.80;99.90
15156;DHT22;7678;50.058;8.306;2023-06-22T07:56:37;25.70;99.90
15156;DHT22;7678;50.058;8.306;2023-06-22T07:59:05;25.90;99.90
15156;DHT22;7678;50.058;8.306;2023-06-22T08:01:35;25.90;99.90
15156;DHT22;7678;50.058;8.306;2023-06-22T08:04:04;25.70;99.90
15156;DHT22;7678;50.058;8.306;2023-06-22T08:06:33;25.80;99.90
15156;DHT22;7678;50.058;8.306;2023-06-22T08:09:02;25.80;99.90
15156;DHT22;7678;50.058;8.306;2023-06-22T08:11:31;25.80;99.90
15156;DHT22;7678;50.058;8.306;2023-06-22T08:14:01;25.90;99.90
15156;DHT22;7678;50.058;8.306;2023-06-22T08:16:29;26.10;99.90
15156;DHT22;7678;50.058;8.306;2023-06-22T08:18:59;26.20;99.90
15156;DHT22;7678;50.058;8.306;2023-06-22T08:21:27;26.20;99.90
15156;DHT22;7678;50.058;8.306;2023-06-22T08:23:56;26.20;99.90
15156;DHT22;7678;50.058;8.306;2023-06-22T08:26:25;26.30;99.90
15156;DHT22;7678;50.058;8.306;2023-06-22T08:28:53;26.60;99.90
15156;DHT22;7678;50.058;8.306;2023-06-22T08:31:21;26.50;99.90
15156;DHT22;7678;50.058;8.306;2023-06-22T08:33:50;26.60;99.90
15156;DHT22;7678;50.058;8.306;2023-06-22T08:36:20;26.60;99.90
15156;DHT22;7678;50.058;8.306;2023-06-22T08:38:48;26.40;99.90
15156;DHT22;7678;50.058;8.306;2023-06-22T08:41:18;26.30;99.90
15156;DHT22;7678;50.058;8.306;2023-06-22T08:43:46;26.60;99.90
15156;DHT22;7678;50.058;8.306;2023-06-22T08:46:14;26.50;99.90
15156;DHT22;7678;50.058;8.306;2023-06-22T08:48:46;26.50;99.90
15156;DHT22;7678;50.058;8.306;2023-06-22T08:51:15;26.60;99.90
15156;DHT22;7678;50.058;8.306;2023-06-22T08:53:45;26.70;99.90
15156;DHT22;7678;50.058;8.306;2023-06-22T08:56:13;26.80;99.90
15156;DHT22;7678;50.058;8.306;2023-06-22T08:58:41;26.90;99.90
15156;DHT22;7678;50.058;8.306;2023-06-22T09:01:09;26.90;99.90
15156;DHT22;7678;50.058;8.306;2023-06-22T09:03:38;27.00;99.90
15156;DHT22;7678;50.058;8.306;2023-06-22T09:06:06;27.20;99.90
15156;DHT22;7678;50.058;8.306;2023-06-22T09:08:36;27.30;99.90
15156;DHT22;7678;50.058;8.306;2023-06-22T09:11:05;27.20;99.90
15156;DHT22;7678;50.058;8.306;2023-06-22T09:13:34;27.30;99.90
15156;DHT22;7678;50.058;8.306;2023-06-22T09:16:02;27.60;99.90
15156;DHT22;7678;50.058;8.306;2023-06-22T09:18:30;27.70;99.90
15156;DHT22;7678;50.058;8.306;2023-06-22T09:20:58;27.60;99.90
15156;DHT22;7678;50.058;8.306;2023-06-22T09:23:27;28.00;99.90
15156;DHT22;7678;50.058;8.306;2023-06-22T09:25:55;27.80;99.90
15156;DHT22;7678;50.058;8.306;2023-06-22T09:28:25;28.00;99.90
15156;DHT22;7678;50.058;8.306;2023-06-22T09:30:53;28.10;99.90
15156;DHT22;7678;50.058;8.306;2023-06-22T09:33:26;28.00;99.90
15156;DHT22;7678;50.058;8.306;2023-06-22T09:35:54;28.40;99.90
15156;DHT22;7678;50.058;8.306;2023-06-22T09:38:23;28.40;99.90
15156;DHT22;7678;50.058;8.306;2023-06-22T09:40:51;28.20;99.90
15156;DHT22;7678;50.058;8.306;2023-06-22T09:43:19;28.30;99.90
15156;DHT22;7678;50.058;8.306;2023-06-22T09:45:49;28.70;99.90
15156;DHT22;7678;50.058;8.306;2023-06-22T09:48:17;28.40;99.90
15156;DHT22;7678;50.058;8.306;2023-06-22T09:50:45;28.30;99.90
15156;DHT22;7678;50.058;8.306;2023-06-22T09:53:14;28.50;99.90
15156;DHT22;7678;50.058;8.306;2023-06-22T09:55:42;28.80;99.90
15156;DHT22;7678;50.058;8.306;2023-06-22T09:58:10;28.80;99.90
15156;DHT22;7678;50.058;8.306;2023-06-22T10:00:38;28.80;99.90
15156;DHT22;7678;50.058;8.306;2023-06-22T10:03:09;28.30;99.90
15156;DHT22;7678;50.058;8.306;2023-06-22T10:05:38;28.20;99.90
15156;DHT22;7678;50.058;8.306;2023-06-22T10:08:06;28.50;99.90
15156;DHT22;7678;50.058;8.306;2023-06-22T10:10:39;28.50;99.90
15156;DHT22;7678;50.058;8.306;2023-06-22T10:13:09;28.70;99.90
15156;DHT22;7678;50.058;8.306;2023-06-22T10:15:38;29.10;99.90
15156;DHT22;7678;50.058;8.306;2023-06-22T10:18:06;29.40;99.90
15156;DHT22;7678;50.058;8.306;2023-06-22T10:20:36;29.40;99.90
15156;DHT22;7678;50.058;8.306;2023-06-22T10:23:04;29.40;99.90
15156;DHT22;7678;50.058;8.306;2023-06-22T10:25:32;29.60;99.90
15156;DHT22;7678;50.058;8.306;2023-06-22T10:28:00;29.60;99.90
15156;DHT22;7678;50.058;8.306;2023-06-22T10:30:28;29.70;99.90
15156;DHT22;7678;50.058;8.306;2023-06-22T10:32:56;30.00;99.90
15156;DHT22;7678;50.058;8.306;2023-06-22T10:35:25;30.30;99.90
15156;DHT22;7678;50.058;8.306;2023-06-22T10:37:55;29.80;99.90
15156;DHT22;7678;50.058;8.306;2023-06-22T10:40:23;30.10;99.90
15156;DHT22;7678;50.058;8.306;2023-06-22T10:42:51;29.90;99.90
15156;DHT22;7678;50.058;8.306;2023-06-22T10:45:19;30.10;99.90
15156;DHT22;7678;50.058;8.306;2023-06-22T10:47:47;30.30;99.90
15156;DHT22;7678;50.058;8.306;2023-06-22T10:50:15;30.80;99.90
15156;DHT22;7678;50.058;8.306;2023-06-22T10:52:43;30.90;99.90
15156;DHT22;7678;50.058;8.306;2023-06-22T10:55:12;30.60;99.90
15156;DHT22;7678;50.058;8.306;2023-06-22T10:57:40;30.40;99.90
15156;DHT22;7678;50.058;8.306;2023-06-22T11:00:12;30.50;99.90
15156;DHT22;7678;50.058;8.306;2023-06-22T11:02:40;30.80;99.40
15156;DHT22;7678;50.058;8.306;2023-06-22T11:05:09;30.60;99.50
15156;DHT22;7678;50.058;8.306;2023-06-22T11:07:38;30.60;98.80
15156;DHT22;7678;50.058;8.306;2023-06-22T11:10:10;30.80;99.20
15156;DHT22;7678;50.058;8.306;2023-06-22T11:12:42;31.00;98.70
15156;DHT22;7678;50.058;8.306;2023-06-22T11:15:10;31.20;98.10
15156;DHT22;7678;50.058;8.306;2023-06-22T11:17:39;31.60;97.90
15156;DHT22;7678;50.058;8.306;2023-06-22T11:20:07;31.90;97.20
15156;DHT22;7678;50.058;8.306;2023-06-22T11:22:38;31.80;97.90
15156;DHT22;7678;50.058;8.306;2023-06-22T11:25:08;31.90;97.00
15156;DHT22;7678;50.058;8.306;2023-06-22T11:27:38;32.00;96.40
15156;DHT22;7678;50.058;8.306;2023-06-22T11:30:09;32.00;95.30
15156;DHT22;7678;50.058;8.306;2023-06-22T11:32:37;32.00;95.10
15156;DHT22;7678;50.058;8.306;2023-06-22T11:35:06;31.80;95.40
15156;DHT22;7678;50.058;8.306;2023-06-22T11:37:34;31.60;95.40
15156;DHT22;7678;50.058;8.306;2023-06-22T11:40:03;32.10;96.00
15156;DHT22;7678;50.058;8.306;2023-06-22T11:42:35;32.10;94.70
15156;DHT22;7678;50.058;8.306;2023-06-22T11:45:06;32.40;94.70
15156;DHT22;7678;50.058;8.306;2023-06-22T11:47:45;32.70;94.10
15156;DHT22;7678;50.058;8.306;2023-06-22T11:50:14;32.80;93.70
15156;DHT22;7678;50.058;8.306;2023-06-22T11:52:42;32.80;93.70
15156;DHT22;7678;50.058;8.306;2023-06-22T11:55:10;33.10;93.30
15156;DHT22;7678;50.058;8.306;2023-06-22T11:57:52;32.80;92.10
15156;DHT22;7678;50.058;8.306;2023-06-22T12:00:20;32.90;93.00
15156;DHT22;7678;50.058;8.306;2023-06-22T12:02:57;33.00;91.70
15156;DHT22;7678;50.058;8.306;2023-06-22T12:05:27;33.00;91.90
15156;DHT22;7678;50.058;8.306;2023-06-22T12:07:55;32.70;91.30
15156;DHT22;7678;50.058;8.306;2023-06-22T12:10:26;33.10;92.70
15156;DHT22;7678;50.058;8.306;2023-06-22T12:12:56;33.50;91.40
15156;DHT22;7678;50.058;8.306;2023-06-22T12:15:26;33.50;90.80
15156;DHT22;7678;50.058;8.306;2023-06-22T12:17:54;33.00;92.20
15156;DHT22;7678;50.058;8.306;2023-06-22T12:20:24;33.30;92.50
15156;DHT22;7678;50.058;8.306;2023-06-22T12:22:52;32.80;91.80
15156;DHT22;7678;50.058;8.306;2023-06-22T12:25:22;32.60;91.60
15156;DHT22;7678;50.058;8.306;2023-06-22T12:27:51;33.10;92.00
15156;DHT22;7678;50.058;8.306;2023-06-22T12:30:22;33.00;91.60
15156;DHT22;7678;50.058;8.306;2023-06-22T12:32:50;33.60;90.40
15156;DHT22;7678;50.058;8.306;2023-06-22T12:35:21;33.80;90.70
15156;DHT22;7678;50.058;8.306;2023-06-22T12:37:51;33.40;91.20
15156;DHT22;7678;50.058;8.306;2023-06-22T12:40:19;33.40;90.90
15156;DHT22;7678;50.058;8.306;2023-06-22T12:42:47;33.50;89.70
15156;DHT22;7678;50.058;8.306;2023-06-22T12:45:16;33.50;90.00
15156;DHT22;7678;50.058;8.306;2023-06-22T12:47:45;33.00;90.50
15156;DHT22;7678;50.058;8.306;2023-06-22T12:50:14;33.20;90.80
15156;DHT22;7678;50.058;8.306;2023-06-22T12:52:42;33.30;90.60
15156;DHT22;7678;50.058;8.306;2023-06-22T12:55:12;33.50;90.70
15156;DHT22;7678;50.058;8.306;2023-06-22T12:57:40;33.60;90.40
15156;DHT22;7678;50.058;8.306;2023-06-22T13:00:09;33.30;90.30
15156;DHT22;7678;50.058;8.306;2023-06-22T13:02:38;33.50;90.90
15156;DHT22;7678;50.058;8.306;2023-06-22T13:05:09;33.40;90.30
15156;DHT22;7678;50.058;8.306;2023-06-22T13:07:37;33.30;90.80
15156;DHT22;7678;50.058;8.306;2023-06-22T13:10:07;33.30;91.50
15156;DHT22;7678;50.058;8.306;2023-06-22T13:12:37;33.80;89.40
15156;DHT22;7678;50.058;8.306;2023-06-22T13:15:06;34.20;89.10
15156;DHT22;7678;50.058;8.306;2023-06-22T13:17:35;33.80;90.00
15156;DHT22;7678;50.058;8.306;2023-06-22T13:20:03;33.70;90.70
15156;DHT22;7678;50.058;8.306;2023-06-22T13:22:33;33.70;90.00
15156;DHT22;7678;50.058;8.306;2023-06-22T13:25:08;33.40;90.80
15156;DHT22;7678;50.058;8.306;2023-06-22T13:27:41;33.20;90.70
15156;DHT22;7678;50.058;8.306;2023-06-22T13:30:10;33.30;90.40
15156;DHT22;7678;50.058;8.306;2023-06-22T13:32:41;33.80;90.30
15156;DHT22;7678;50.058;8.306;2023-06-22T13:35:10;33.80;90.30
15156;DHT22;7678;50.058;8.306;2023-06-22T13:37:38;33.90;90.00
15156;DHT22;7678;50.058;8.306;2023-06-22T13:40:07;33.90;88.40
15156;DHT22;7678;50.058;8.306;2023-06-22T13:42:35;33.30;89.70
15156;DHT22;7678;50.058;8.306;2023-06-22T13:45:07;33.20;90.50
15156;DHT22;7678;50.058;8.306;2023-06-22T13:47:36;32.90;90.80
15156;DHT22;7678;50.058;8.306;2023-06-22T13:50:05;32.90;90.40
15156;DHT22;7678;50.058;8.306;2023-06-22T13:52:33;33.20;92.10
15156;DHT22;7678;50.058;8.306;2023-06-22T13:55:01;33.60;90.00
15156;DHT22;7678;50.058;8.306;2023-06-22T13:57:29;34.10;89.50
15156;DHT22;7678;50.058;8.306;2023-06-22T13:59:58;34.60;88.20
15156;DHT22;7678;50.058;8.306;2023-06-22T14:02:28;35.30;87.40
15156;DHT22;7678;50.058;8.306;2023-06-22T14:04:56;34.80;84.30
15156;DHT22;7678;50.058;8.306;2023-06-22T14:07:24;34.10;80.30
15156;DHT22;7678;50.058;8.306;2023-06-22T14:09:52;33.80;84.30
15156;DHT22;7678;50.058;8.306;2023-06-22T14:12:20;33.30;82.70
15156;DHT22;7678;50.058;8.306;2023-06-22T14:14:48;33.10;83.40
15156;DHT22;7678;50.058;8.306;2023-06-22T14:17:16;32.90;82.80
15156;DHT22;7678;50.058;8.306;2023-06-22T14:19:45;32.80;82.20
15156;DHT22;7678;50.058;8.306;2023-06-22T14:22:14;32.70;82.60
15156;DHT22;7678;50.058;8.306;2023-06-22T14:24:42;32.60;84.30
15156;DHT22;7678;50.058;8.306;2023-06-22T14:27:10;32.30;83.50
15156;DHT22;7678;50.058;8.306;2023-06-22T14:29:40;32.00;83.50
15156;DHT22;7678;50.058;8.306;2023-06-22T14:32:09;31.80;84.50
15156;DHT22;7678;50.058;8.306;2023-06-22T14:34:38;31.90;81.70
15156;DHT22;7678;50.058;8.306;2023-06-22T14:37:09;31.60;83.20
15156;DHT22;7678;50.058;8.306;2023-06-22T14:39:39;31.60;81.70
15156;DHT22;7678;50.058;8.306;2023-06-22T14:42:08;31.80;82.50
15156;DHT22;7678;50.058;8.306;2023-06-22T14:44:39;31.70;82.80
15156;DHT22;7678;50.058;8.306;2023-06-22T14:47:07;31.60;83.60
15156;DHT22;7678;50.058;8.306;2023-06-22T14:49:35;31.50;85.20
15156;DHT22;7678;50.058;8.306;2023-06-22T14:52:04;31.50;84.80
15156;DHT22;7678;50.058;8.306;2023-06-22T14:54:34;31.50;85.70
15156;DHT22;7678;50.058;8.306;2023-06-22T14:57:03;31.50;86.00
15156;DHT22;7678;50.058;8.306;2023-06-22T14:59:31;31.30;86.10
15156;DHT22;7678;50.058;8.306;2023-06-22T15:01:59;31.10;87.30
15156;DHT22;7678;50.058;8.306;2023-06-22T15:04:27;31.10;86.60
15156;DHT22;7678;50.058;8.306;2023-06-22T15:06:58;31.10;88.70
15156;DHT22;7678;50.058;8.306;2023-06-22T15:09:26;30.80;89.00
15156;DHT22;7678;50.058;8.306;2023-06-22T15:11:56;30.60;90.10
15156;DHT22;7678;50.058;8.306;2023-06-22T15:14:24;30.40;90.10
15156;DHT22;7678;50.058;8.306;2023-06-22T15:16:53;29.70;93.60
15156;DHT22;7678;50.058;8.306;2023-06-22T15:19:21;28.50;96.10
15156;DHT22;7678;50.058;8.306;2023-06-22T15:21:49;27.20;99.90
15156;DHT22;7678;50.058;8.306;2023-06-22T15:24:17;25.20;99.90
15156;DHT22;7678;50.058;8.306;2023-06-22T15:26:45;25.20;99.90
15156;DHT22;7678;50.058;8.306;2023-06-22T15:29:14;25.90;99.90
15156;DHT22;7678;50.058;8.306;2023-06-22T15:31:43;26.10;99.90
15156;DHT22;7678;50.058;8.306;2023-06-22T15:34:13;26.10;99.90
15156;DHT22;7678;50.058;8.306;2023-06-22T15:36:41;26.00;99.90
15156;DHT22;7678;50.058;8.306;2023-06-22T15:39:09;26.00;99.90
15156;DHT22;7678;50.058;8.306;2023-06-22T15:41:39;26.00;99.90
15156;DHT22;7678;50.058;8.306;2023-06-22T15:44:11;26.10;99.90
15156;DHT22;7678;50.058;8.306;2023-06-22T15:46:42;26.10;99.90
15156;DHT22;7678;50.058;8.306;2023-06-22T15:49:11;26.20;99.90
15156;DHT22;7678;50.058;8.306;2023-06-22T15:51:40;26.70;99.90
15156;DHT22;7678;50.058;8.306;2023-06-22T15:54:08;26.20;99.90
15156;DHT22;7678;50.058;8.306;2023-06-22T15:56:36;24.40;99.90